createdAt,value
2022-08-26T00:01:57.796Z,22.42
2022-08-26T00:04:27.024Z,22.48
2022-08-26T00:06:55.837Z,22.41
2022-08-26T00:09:24.892Z,22.37
2022-08-26T00:11:53.427Z,22.53
2022-08-26T00:14:21.384Z,22.50
2022-08-26T00:16:49.335Z,22.60
2022-08-26T00:19:20.776Z,22.42
2022-08-26T00:21:49.959Z,22.27
2022-08-26T00:24:18.337Z,22.35
2022-08-26T00:26:46.407Z,22.07
2022-08-26T00:29:14.941Z,22.19
2022-08-26T00:31:45.249Z,22.23
2022-08-26T00:34:14.253Z,22.06
2022-08-26T00:36:44.934Z,22.03
2022-08-26T00:39:12.744Z,22.09
2022-08-26T00:41:42.335Z,22.16
2022-08-26T00:44:11.426Z,22.05
2022-08-26T00:46:46.459Z,21.85
2022-08-26T00:49:18.000Z,21.97
2022-08-26T00:51:50.405Z,22.00
2022-08-26T00:54:21.078Z,22.11
2022-08-26T00:56:54.563Z,22.02
2022-08-26T00:59:23.287Z,22.11
2022-08-26T01:01:51.514Z,22.06
2022-08-26T01:04:23.033Z,22.20
2022-08-26T01:06:54.592Z,22.24
2022-08-26T01:09:23.339Z,22.14
2022-08-26T01:11:54.211Z,22.14
2022-08-26T01:14:23.838Z,22.22
2022-08-26T01:16:51.629Z,22.33
2022-08-26T01:19:24.817Z,22.36
2022-08-26T01:21:59.088Z,22.29
2022-08-26T01:24:30.370Z,22.28
2022-08-26T01:27:01.631Z,22.25
2022-08-26T01:29:32.010Z,22.14
2022-08-26T01:32:00.802Z,22.22
2022-08-26T01:34:31.362Z,22.25
2022-08-26T01:37:03.975Z,22.11
2022-08-26T01:39:36.541Z,22.09
2022-08-26T01:42:10.302Z,22.15
2022-08-26T01:44:44.911Z,22.30
2022-08-26T01:47:15.919Z,22.32
2022-08-26T01:49:48.380Z,22.40
2022-08-26T01:52:24.217Z,22.34
2022-08-26T01:54:59.903Z,22.25
2022-08-26T01:57:29.008Z,22.40
2022-08-26T01:59:59.479Z,22.53
2022-08-26T02:02:28.190Z,22.29
2022-08-26T02:05:00.689Z,22.27
2022-08-26T02:07:29.792Z,22.35
2022-08-26T02:09:58.995Z,22.58
2022-08-26T02:12:28.341Z,22.45
2022-08-26T02:15:01.941Z,22.41
2022-08-26T02:17:38.728Z,22.39
2022-08-26T02:20:10.705Z,22.35
2022-08-26T02:22:42.536Z,22.48
2022-08-26T02:25:23.208Z,22.56
2022-08-26T02:27:52.225Z,22.45
2022-08-26T02:30:23.157Z,22.51
2022-08-26T02:32:51.797Z,22.47
2022-08-26T02:35:21.619Z,22.64
2022-08-26T02:37:51.120Z,22.67
2022-08-26T02:40:24.995Z,22.60
2022-08-26T02:42:56.941Z,22.53
2022-08-26T02:45:26.239Z,22.62
2022-08-26T02:47:55.776Z,22.75
2022-08-26T02:50:25.605Z,22.68
2022-08-26T02:52:53.874Z,22.54
2022-08-26T02:55:24.682Z,22.29
2022-08-26T02:57:52.634Z,22.27
2022-08-26T03:00:20.945Z,22.43
2022-08-26T03:02:48.768Z,22.49
2022-08-26T03:05:17.899Z,22.44
2022-08-26T03:07:45.630Z,22.22
2022-08-26T03:10:13.690Z,21.99
2022-08-26T03:12:47.532Z,22.24
2022-08-26T03:15:18.458Z,22.21
2022-08-26T03:17:47.425Z,22.23
2022-08-26T03:20:17.515Z,22.20
2022-08-26T03:22:46.661Z,22.19
2022-08-26T03:25:17.096Z,22.48
2022-08-26T03:27:46.405Z,22.48
2022-08-26T03:30:34.068Z,22.34
2022-08-26T03:33:02.449Z,22.56
2022-08-26T03:35:30.941Z,22.47
2022-08-26T03:37:58.930Z,22.36
2022-08-26T03:40:29.058Z,22.55
2022-08-26T03:42:58.589Z,22.50
2022-08-26T03:45:27.924Z,22.51
2022-08-26T03:47:55.789Z,22.56
2022-08-26T03:50:27.038Z,22.46
2022-08-26T03:52:55.989Z,22.48
2022-08-26T03:55:25.973Z,22.64
2022-08-26T03:57:55.815Z,22.46
2022-08-26T04:00:25.728Z,22.48
2022-08-26T04:02:54.016Z,22.54
2022-08-26T04:05:23.048Z,22.55
2022-08-26T04:07:51.404Z,22.51
2022-08-26T04:10:22.136Z,22.56
2022-08-26T04:12:56.720Z,22.78
2022-08-26T04:15:29.201Z,22.92
2022-08-26T04:17:57.675Z,23.05
2022-08-26T04:20:25.808Z,23.14
2022-08-26T04:22:53.987Z,23.08
2022-08-26T04:25:22.514Z,22.98
2022-08-26T04:27:52.121Z,23.10
2022-08-26T04:30:21.207Z,23.06
2022-08-26T04:32:50.840Z,23.00
2022-08-26T04:35:20.907Z,23.00
2022-08-26T04:37:53.359Z,23.35
2022-08-26T04:40:21.572Z,23.34
2022-08-26T04:42:50.253Z,23.23
2022-08-26T04:45:18.880Z,22.95
2022-08-26T04:47:56.292Z,23.08
2022-08-26T04:50:25.787Z,23.13
2022-08-26T04:52:55.047Z,23.53
2022-08-26T04:55:37.688Z,23.49
2022-08-26T04:58:08.758Z,23.35
2022-08-26T05:00:38.732Z,23.25
2022-08-26T05:03:10.290Z,23.20
2022-08-26T05:05:40.187Z,22.87
2022-08-26T05:08:08.386Z,23.25
2022-08-26T05:10:41.006Z,22.98
2022-08-26T05:13:11.041Z,22.76
2022-08-26T05:15:40.342Z,22.88
2022-08-26T05:18:10.546Z,22.77
2022-08-26T05:20:40.607Z,22.89
2022-08-26T05:23:08.748Z,22.77
2022-08-26T05:25:38.858Z,22.72
2022-08-26T05:28:07.783Z,22.91
2022-08-26T05:30:36.238Z,22.85
2022-08-26T05:33:05.207Z,22.82
2022-08-26T05:35:34.872Z,22.81
2022-08-26T05:38:04.159Z,22.74
2022-08-26T05:40:35.669Z,23.12
2022-08-26T05:43:05.074Z,23.35
2022-08-26T05:45:34.245Z,23.26
2022-08-26T05:48:02.027Z,23.23
2022-08-26T05:50:30.182Z,22.82
2022-08-26T05:53:00.609Z,23.14
2022-08-26T05:55:29.930Z,23.30
2022-08-26T05:58:01.077Z,23.37
2022-08-26T06:00:30.592Z,23.49
2022-08-26T06:02:58.479Z,23.48
2022-08-26T06:05:26.631Z,23.13
2022-08-26T06:08:15.077Z,23.40
2022-08-26T06:10:52.533Z,23.55
2022-08-26T06:13:21.923Z,23.33
2022-08-26T06:15:52.035Z,23.20
2022-08-26T06:18:24.109Z,23.20
2022-08-26T06:20:57.407Z,23.01
2022-08-26T06:23:45.346Z,23.36
2022-08-26T06:26:15.939Z,23.41
2022-08-26T06:28:45.340Z,23.69
2022-08-26T06:31:14.343Z,23.68
2022-08-26T06:33:42.273Z,23.55
2022-08-26T06:36:10.176Z,23.61
2022-08-26T06:38:38.059Z,23.52
2022-08-26T06:41:10.439Z,23.73
2022-08-26T06:43:39.644Z,23.78
2022-08-26T06:46:10.091Z,23.49
2022-08-26T06:48:40.209Z,23.86
2022-08-26T06:51:10.108Z,24.11
2022-08-26T06:53:38.638Z,24.04
2022-08-26T06:56:11.903Z,24.03
2022-08-26T06:58:42.412Z,24.43
2022-08-26T07:01:17.127Z,24.18
2022-08-26T07:03:46.736Z,24.31
2022-08-26T07:06:15.341Z,23.82
2022-08-26T07:08:44.393Z,24.26
2022-08-26T07:11:12.898Z,24.31
2022-08-26T07:13:42.061Z,24.20
2022-08-26T07:16:12.766Z,24.30
2022-08-26T07:18:44.849Z,24.13
2022-08-26T07:21:16.638Z,24.53
2022-08-26T07:23:46.312Z,24.49
2022-08-26T07:26:17.784Z,24.26
2022-08-26T07:28:48.752Z,24.53
2022-08-26T07:31:17.572Z,23.90
2022-08-26T07:33:46.596Z,23.97
2022-08-26T07:36:15.989Z,24.07
2022-08-26T07:38:45.242Z,24.54
2022-08-26T07:41:14.850Z,24.81
2022-08-26T07:43:42.961Z,24.77
2022-08-26T07:46:18.540Z,24.63
2022-08-26T07:48:50.180Z,24.99
2022-08-26T07:51:20.733Z,25.12
2022-08-26T07:53:52.367Z,24.98
2022-08-26T07:56:20.726Z,25.45
2022-08-26T07:58:51.585Z,24.90
2022-08-26T08:01:27.248Z,24.58
2022-08-26T08:03:56.448Z,24.62
2022-08-26T08:06:28.192Z,24.95
2022-08-26T08:08:57.103Z,25.26
2022-08-26T08:11:27.274Z,25.27
2022-08-26T08:13:56.777Z,25.31
2022-08-26T08:16:26.771Z,25.27
2022-08-26T08:18:56.470Z,25.20
2022-08-26T08:21:25.427Z,25.25
2022-08-26T08:23:54.526Z,25.81
2022-08-26T08:26:23.057Z,25.98
2022-08-26T08:28:51.245Z,25.88
2022-08-26T08:31:38.671Z,25.93
2022-08-26T08:34:10.698Z,26.17
2022-08-26T08:36:38.531Z,26.37
2022-08-26T08:39:06.592Z,26.91
2022-08-26T08:41:52.613Z,26.45
2022-08-26T08:44:30.863Z,26.26
2022-08-26T08:47:02.898Z,26.68
2022-08-26T08:49:34.483Z,26.20
2022-08-26T08:52:07.865Z,26.55
2022-08-26T08:54:35.785Z,26.81
2022-08-26T08:57:13.598Z,27.20
2022-08-26T08:59:50.911Z,28.07
2022-08-26T09:02:25.165Z,27.69
2022-08-26T09:05:07.408Z,27.89
2022-08-26T09:07:39.204Z,27.54
2022-08-26T09:10:28.409Z,27.85
2022-08-26T09:12:56.402Z,27.92
2022-08-26T09:15:30.452Z,28.18
2022-08-26T09:18:11.136Z,27.97
2022-08-26T09:20:50.844Z,28.09
2022-08-26T09:23:19.155Z,27.99
2022-08-26T09:25:49.298Z,28.09
2022-08-26T09:28:19.202Z,28.20
2022-08-26T09:30:48.687Z,28.06
2022-08-26T09:33:19.355Z,28.91
2022-08-26T09:35:49.135Z,28.15
2022-08-26T09:38:26.654Z,28.71
2022-08-26T09:40:59.101Z,28.18
2022-08-26T09:43:28.565Z,28.68
2022-08-26T09:46:11.325Z,29.49
2022-08-26T09:48:41.152Z,29.10
2022-08-26T09:51:29.250Z,29.26
2022-08-26T09:53:59.510Z,29.37
2022-08-26T09:56:29.454Z,29.43
2022-08-26T09:58:58.287Z,29.69
2022-08-26T10:01:32.813Z,29.30
2022-08-26T10:04:10.899Z,29.06
2022-08-26T10:06:43.903Z,29.49
2022-08-26T10:09:15.093Z,29.54
2022-08-26T10:11:47.685Z,29.59
2022-08-26T10:14:22.332Z,28.89
2022-08-26T10:16:55.082Z,27.86
2022-08-26T10:19:41.755Z,28.14
2022-08-26T10:22:21.831Z,28.74
2022-08-26T10:24:55.282Z,28.48
2022-08-26T10:27:33.055Z,29.54
2022-08-26T10:30:07.999Z,29.51
2022-08-26T10:32:41.816Z,28.86
2022-08-26T10:35:13.532Z,29.28
2022-08-26T10:37:46.866Z,29.43
2022-08-26T10:40:21.954Z,29.38
2022-08-26T10:42:56.555Z,29.67
2022-08-26T10:45:27.981Z,29.95
2022-08-26T10:48:02.433Z,30.50
2022-08-26T10:50:35.331Z,31.74
2022-08-26T10:53:14.595Z,32.22
2022-08-26T10:55:50.633Z,33.07
2022-08-26T10:58:33.254Z,32.69
2022-08-26T11:01:26.358Z,32.37
2022-08-26T11:04:04.088Z,33.02
2022-08-26T11:06:32.725Z,31.76
2022-08-26T11:09:04.182Z,31.39
2022-08-26T11:11:50.410Z,30.64
2022-08-26T11:14:45.929Z,29.19
2022-08-26T11:17:55.345Z,29.95
2022-08-26T11:20:34.964Z,29.71
2022-08-26T11:23:36.189Z,29.80
2022-08-26T11:26:30.052Z,30.11
2022-08-26T11:29:04.542Z,30.40
2022-08-26T11:31:57.397Z,30.26
2022-08-26T11:34:52.250Z,29.59
2022-08-26T11:39:54.716Z,30.52
2022-08-26T11:42:32.970Z,29.84
2022-08-26T11:45:05.336Z,29.76
2022-08-26T11:47:34.134Z,29.94
2022-08-26T11:50:15.235Z,29.62
2022-08-26T11:52:52.470Z,29.07
2022-08-26T11:55:20.487Z,29.27
2022-08-26T11:57:55.490Z,28.86
2022-08-26T12:00:25.531Z,28.97
2022-08-26T12:02:55.647Z,28.16
2022-08-26T12:05:27.219Z,27.77
2022-08-26T12:08:03.651Z,29.00
2022-08-26T12:10:33.821Z,28.16
2022-08-26T12:13:05.156Z,29.22
2022-08-26T12:15:35.502Z,29.02
2022-08-26T12:18:20.651Z,28.57
2022-08-26T12:20:57.613Z,26.83
2022-08-26T12:23:27.904Z,27.30
2022-08-26T12:26:06.517Z,26.82
2022-08-26T12:28:43.591Z,27.20
2022-08-26T12:31:11.502Z,28.52
2022-08-26T12:33:39.698Z,28.70
2022-08-26T12:36:08.083Z,30.50
2022-08-26T12:38:40.378Z,30.84
2022-08-26T12:41:08.405Z,32.06
2022-08-26T12:43:45.874Z,31.61
2022-08-26T12:46:17.152Z,31.73
2022-08-26T12:48:49.413Z,31.05
2022-08-26T12:51:23.613Z,30.29
2022-08-26T12:53:52.082Z,31.27
2022-08-26T12:56:27.175Z,31.36
2022-08-26T12:59:06.027Z,29.62
2022-08-26T13:01:40.207Z,29.13
2022-08-26T13:04:08.132Z,29.51
2022-08-26T13:06:35.905Z,28.64
2022-08-26T13:09:06.577Z,28.39
2022-08-26T13:11:36.419Z,27.72
2022-08-26T13:14:07.547Z,27.65
2022-08-26T13:16:36.441Z,27.47
2022-08-26T13:19:11.435Z,26.84
2022-08-26T13:21:47.785Z,26.79
2022-08-26T13:24:18.985Z,26.74
2022-08-26T13:26:48.993Z,26.27
2022-08-26T13:29:19.564Z,26.43
2022-08-26T13:31:48.472Z,26.20
2022-08-26T13:34:19.187Z,25.94
2022-08-26T13:36:47.578Z,25.92
2022-08-26T13:39:15.411Z,25.60
2022-08-26T13:41:43.706Z,25.78
2022-08-26T13:44:12.276Z,25.94
2022-08-26T13:46:41.729Z,25.58
2022-08-26T13:49:10.031Z,25.32
2022-08-26T13:51:38.437Z,24.82
2022-08-26T13:54:07.137Z,24.32
2022-08-26T13:56:35.871Z,24.31
2022-08-26T13:59:04.007Z,24.44
2022-08-26T14:01:32.944Z,24.52
2022-08-26T14:04:02.658Z,24.18
2022-08-26T14:06:30.644Z,24.10
2022-08-26T14:08:58.817Z,23.97
2022-08-26T14:11:26.978Z,23.83
2022-08-26T14:13:54.998Z,23.79
2022-08-26T14:16:26.085Z,23.79
2022-08-26T14:18:54.635Z,23.80
2022-08-26T14:21:25.039Z,24.05
2022-08-26T14:23:55.146Z,24.03
2022-08-26T14:26:29.252Z,23.89
2022-08-26T14:28:59.087Z,23.87
2022-08-26T14:31:29.328Z,23.73
2022-08-26T14:33:59.811Z,23.55
2022-08-26T14:36:29.153Z,23.67
2022-08-26T14:39:00.236Z,23.59
2022-08-26T14:41:28.739Z,23.72
2022-08-26T14:44:00.993Z,23.82
2022-08-26T14:46:30.706Z,23.62
2022-08-26T14:49:03.540Z,23.65
2022-08-26T14:51:33.621Z,23.85
2022-08-26T14:54:13.734Z,24.13
2022-08-26T14:56:46.805Z,23.95
2022-08-26T14:59:17.428Z,23.79
2022-08-26T15:01:46.065Z,23.87
2022-08-26T15:04:14.872Z,23.85
2022-08-26T15:06:44.194Z,23.85
2022-08-26T15:09:12.223Z,23.76
2022-08-26T15:11:40.626Z,23.98
2022-08-26T15:14:08.620Z,24.23
2022-08-26T15:16:47.930Z,24.10
2022-08-26T15:19:15.973Z,24.08
2022-08-26T15:21:47.181Z,23.73
2022-08-26T15:24:17.224Z,23.78
2022-08-26T15:26:45.802Z,24.05
2022-08-26T15:29:13.661Z,24.33
2022-08-26T15:31:41.544Z,24.44
2022-08-26T15:34:16.041Z,24.26
2022-08-26T15:36:47.648Z,24.24
2022-08-26T15:39:17.116Z,24.22
2022-08-26T15:41:45.048Z,24.10
2022-08-26T15:44:13.998Z,24.07
2022-08-26T15:46:42.165Z,24.03
2022-08-26T15:49:17.009Z,23.93
2022-08-26T15:51:50.307Z,24.09
2022-08-26T15:54:19.901Z,24.15
2022-08-26T15:56:50.542Z,23.95
2022-08-26T15:59:19.230Z,23.94
2022-08-26T16:01:47.724Z,23.95
2022-08-26T16:04:15.649Z,23.89
2022-08-26T16:06:44.116Z,23.95
2022-08-26T16:09:13.243Z,23.87
2022-08-26T16:11:41.025Z,23.91
2022-08-26T16:14:09.181Z,23.95
2022-08-26T16:16:39.251Z,23.78
2022-08-26T16:19:07.785Z,23.95
2022-08-26T16:21:35.856Z,23.71
2022-08-26T16:24:04.578Z,23.65
2022-08-26T16:26:36.402Z,23.72
2022-08-26T16:29:07.596Z,23.51
2022-08-26T16:31:35.729Z,23.35
2022-08-26T16:34:03.623Z,23.60
2022-08-26T16:36:31.444Z,23.59
2022-08-26T16:38:59.479Z,23.66
2022-08-26T16:41:29.088Z,23.78
2022-08-26T16:43:58.760Z,23.62
2022-08-26T16:46:27.581Z,23.49
2022-08-26T16:48:56.632Z,23.66
2022-08-26T16:51:27.547Z,23.67
2022-08-26T16:53:56.644Z,23.83
2022-08-26T16:56:33.615Z,23.86
2022-08-26T16:59:05.254Z,23.87
2022-08-26T17:01:33.279Z,23.93
2022-08-26T17:04:01.123Z,23.87
2022-08-26T17:06:29.484Z,23.72
2022-08-26T17:08:57.347Z,23.79
2022-08-26T17:11:25.157Z,23.88
2022-08-26T17:13:53.025Z,23.57
2022-08-26T17:16:26.435Z,23.71
2022-08-26T17:18:56.026Z,23.46
2022-08-26T17:21:23.819Z,23.26
2022-08-26T17:23:51.841Z,23.35
2022-08-26T17:26:19.961Z,23.54
2022-08-26T17:28:47.808Z,23.50
2022-08-26T17:31:15.651Z,23.61
2022-08-26T17:33:47.741Z,23.72
2022-08-26T17:36:18.512Z,23.68
2022-08-26T17:38:46.324Z,23.64
2022-08-26T17:41:16.399Z,23.68
2022-08-26T17:43:44.477Z,23.62
2022-08-26T17:46:13.812Z,23.59
2022-08-26T17:48:42.234Z,23.63
2022-08-26T17:51:13.761Z,23.61
2022-08-26T17:53:42.330Z,23.53
2022-08-26T17:56:12.412Z,23.45
2022-08-26T17:58:40.868Z,23.62
2022-08-26T18:01:16.196Z,23.62
2022-08-26T18:03:44.256Z,23.51
2022-08-26T18:06:14.644Z,23.44
2022-08-26T18:08:43.998Z,23.45
2022-08-26T18:11:13.760Z,23.42
2022-08-26T18:13:47.112Z,23.36
2022-08-26T18:16:16.859Z,23.21
2022-08-26T18:18:45.063Z,23.32
2022-08-26T18:21:15.947Z,23.24
2022-08-26T18:23:44.203Z,23.35
2022-08-26T18:26:17.635Z,23.59
2022-08-26T18:28:45.424Z,23.65
2022-08-26T18:31:13.312Z,23.69
2022-08-26T18:33:42.997Z,23.52
2022-08-26T18:36:18.446Z,23.47
2022-08-26T18:38:50.702Z,23.58
2022-08-26T18:41:21.575Z,23.60
2022-08-26T18:43:50.754Z,23.39
2022-08-26T18:46:19.839Z,23.28
2022-08-26T18:48:50.783Z,23.68
2022-08-26T18:51:24.177Z,23.63
2022-08-26T18:53:52.347Z,23.70
2022-08-26T18:56:20.302Z,23.51
2022-08-26T18:58:48.113Z,23.50
2022-08-26T19:01:16.772Z,23.33
2022-08-26T19:03:44.952Z,23.40
2022-08-26T19:06:15.463Z,23.44
2022-08-26T19:08:45.047Z,23.41
2022-08-26T19:11:18.694Z,23.56
2022-08-26T19:14:00.932Z,23.50
2022-08-26T19:16:29.800Z,23.55
2022-08-26T19:18:58.897Z,23.65
2022-08-26T19:21:26.757Z,23.85
2022-08-26T19:23:58.909Z,23.83
2022-08-26T19:26:27.981Z,23.87
2022-08-26T19:28:56.362Z,23.79
2022-08-26T19:31:24.408Z,23.83
2022-08-26T19:33:53.734Z,23.68
2022-08-26T19:36:24.880Z,23.40
2022-08-26T19:38:53.564Z,23.35
2022-08-26T19:41:34.170Z,23.29
2022-08-26T19:44:08.863Z,23.56
2022-08-26T19:49:10.168Z,23.43
2022-08-26T19:51:38.079Z,23.39
2022-08-26T19:54:06.183Z,23.26
2022-08-26T19:56:35.413Z,23.45
2022-08-26T19:59:04.186Z,23.53
2022-08-26T20:01:32.065Z,23.62
2022-08-26T20:03:59.987Z,23.60
2022-08-26T20:06:27.823Z,23.53
2022-08-26T20:08:56.310Z,23.68
2022-08-26T20:11:24.901Z,23.71
2022-08-26T20:13:54.153Z,23.63
2022-08-26T20:16:22.063Z,23.39
2022-08-26T20:19:07.546Z,23.51
2022-08-26T20:21:38.195Z,23.60
2022-08-26T20:24:09.439Z,23.50
2022-08-26T20:26:39.837Z,23.59
2022-08-26T20:29:10.984Z,23.31
2022-08-26T20:31:39.909Z,23.48
2022-08-26T20:34:08.179Z,23.43
2022-08-26T20:36:36.098Z,23.51
2022-08-26T20:39:04.885Z,23.69
2022-08-26T20:41:33.475Z,23.75
2022-08-26T20:44:01.990Z,23.66
2022-08-26T20:46:31.518Z,23.52
2022-08-26T20:48:59.511Z,23.46
2022-08-26T20:51:32.216Z,23.12
2022-08-26T20:54:01.278Z,23.10
2022-08-26T20:56:31.332Z,23.13
2022-08-26T20:59:01.184Z,23.30
2022-08-26T21:01:39.852Z,23.26
2022-08-26T21:04:13.959Z,23.00
2022-08-26T21:06:47.259Z,23.19
2022-08-26T21:09:24.944Z,22.96
2022-08-26T21:11:54.710Z,22.88
2022-08-26T21:14:25.813Z,23.17
2022-08-26T21:16:55.540Z,22.81
2022-08-26T21:19:23.382Z,22.64
2022-08-26T21:21:51.702Z,22.75
2022-08-26T21:24:19.495Z,22.75
2022-08-26T21:26:47.645Z,22.79
2022-08-26T21:29:15.823Z,23.01
2022-08-26T21:31:46.433Z,23.01
2022-08-26T21:34:17.646Z,22.81
2022-08-26T21:36:46.024Z,22.92
2022-08-26T21:39:14.138Z,22.82
2022-08-26T21:41:43.559Z,22.56
2022-08-26T21:44:12.365Z,22.44
2022-08-26T21:46:40.194Z,22.71
2022-08-26T21:49:11.392Z,22.54
2022-08-26T21:51:42.965Z,22.47
2022-08-26T21:54:12.166Z,22.49
2022-08-26T21:56:42.240Z,22.65
2022-08-26T21:59:10.527Z,22.61
2022-08-26T22:01:38.690Z,22.60
2022-08-26T22:04:08.513Z,22.67
2022-08-26T22:06:43.428Z,22.53
2022-08-26T22:09:12.637Z,22.65
2022-08-26T22:11:40.443Z,22.62
2022-08-26T22:14:08.288Z,22.72
2022-08-26T22:16:36.100Z,22.71
2022-08-26T22:19:03.959Z,22.45
2022-08-26T22:21:32.149Z,22.85
2022-08-26T22:24:01.343Z,22.77
2022-08-26T22:26:32.564Z,22.77
2022-08-26T22:29:02.282Z,22.51
2022-08-26T22:31:37.867Z,22.67
2022-08-26T22:34:08.140Z,22.61
2022-08-26T22:36:43.186Z,22.88
2022-08-26T22:39:14.423Z,23.11
2022-08-26T22:41:43.031Z,23.03
2022-08-26T22:44:11.702Z,22.97
2022-08-26T22:46:39.699Z,22.79
2022-08-26T22:49:09.574Z,22.72
2022-08-26T22:51:37.579Z,22.80
2022-08-26T22:54:06.198Z,22.68
2022-08-26T22:56:35.743Z,22.87
2022-08-26T22:59:03.731Z,22.79
2022-08-26T23:01:31.601Z,22.81
2022-08-26T23:03:59.722Z,22.73
2022-08-26T23:06:27.559Z,22.80
2022-08-26T23:08:55.355Z,22.87
2022-08-26T23:11:23.144Z,22.68
2022-08-26T23:13:52.391Z,22.73
2022-08-26T23:16:20.239Z,22.76
2022-08-26T23:18:48.143Z,22.88
2022-08-26T23:21:16.100Z,22.88
2022-08-26T23:23:44.335Z,22.79
2022-08-26T23:26:16.780Z,22.84
2022-08-26T23:28:45.734Z,22.71
2022-08-26T23:31:15.367Z,22.83
2022-08-26T23:34:00.799Z,22.93
2022-08-26T23:36:30.833Z,22.95
2022-08-26T23:39:02.202Z,23.01
2022-08-26T23:41:29.979Z,22.85
2022-08-26T23:44:02.866Z,22.93
2022-08-26T23:46:33.158Z,22.80
2022-08-26T23:49:01.485Z,22.87
2022-08-26T23:51:46.468Z,22.61
2022-08-26T23:54:16.214Z,22.62
2022-08-26T23:56:44.817Z,22.64
2022-08-26T23:59:12.825Z,22.71
